Time;durP1;ratioP1;P1;durP2;ratioP2;P2;SDS_P1;SDS_P2;PMS_P1;PMS_P2;Temp;Humidity;BMP_temperature;BMP_pressure;BME280_temperature;BME280_humidity;BME280_pressure;Samples;Min_cycle;Max_cycle;Signal;HPM_P1;HPM_P2
2021/11/23 00:01:17;;;;;;;8.18;3.15;;;8.40;85.80;;;;;;4976301;28;92974;-75
2021/11/23 00:03:44;;;;;;;9.02;3.30;;;8.40;85.90;;;;;;4958680;28;95460;-74
2021/11/23 00:06:11;;;;;;;11.15;3.35;;;8.40;85.80;;;;;;4959621;28;92493;-75
2021/11/23 00:08:38;;;;;;;9.18;3.45;;;8.40;85.60;;;;;;4976461;28;92435;-75
2021/11/23 00:11:05;;;;;;;9.07;3.10;;;8.40;85.50;;;;;;4958550;28;94312;-74
2021/11/23 00:13:33;;;;;;;8.13;3.00;;;8.40;85.50;;;;;;4976498;28;92836;-74
2021/11/23 00:16:00;;;;;;;7.78;3.05;;;8.40;85.50;;;;;;4974787;28;102658;-74
2021/11/23 00:18:27;;;;;;;9.23;3.47;;;8.50;85.50;;;;;;4976337;28;92435;-74
2021/11/23 00:20:54;;;;;;;8.20;3.25;;;8.50;85.30;;;;;;4975174;28;95658;-75
2021/11/23 00:23:21;;;;;;;6.93;3.40;;;8.50;86.10;;;;;;4958520;28;95250;-74
2021/11/23 00:25:48;;;;;;;7.00;2.95;;;8.50;85.50;;;;;;4976612;28;92423;-74
2021/11/23 00:28:15;;;;;;;8.20;3.15;;;8.50;85.40;;;;;;4976492;28;92457;-74
2021/11/23 00:30:43;;;;;;;7.28;2.90;;;8.60;85.40;;;;;;4975933;28;92949;-75
2021/11/23 00:33:10;;;;;;;7.68;3.55;;;8.60;85.60;;;;;;4975889;28;94520;-74
2021/11/23 00:35:38;;;;;;;8.13;3.60;;;8.60;85.80;;;;;;4958375;28;92554;-75
2021/11/23 00:38:05;;;;;;;9.40;3.80;;;8.60;85.60;;;;;;4976503;28;91718;-74
2021/11/23 00:40:33;;;;;;;13.88;4.10;;;8.60;85.50;;;;;;4975270;28;105733;-74
2021/11/23 00:43:04;;;;;;;11.15;4.03;;;8.60;85.60;;;;;;4958511;28;92831;-74
2021/11/23 00:45:35;;;;;;;11.98;3.88;;;8.60;86.00;;;;;;4974651;28;94915;-75
2021/11/23 00:48:04;;;;;;;11.52;4.47;;;8.70;85.90;;;;;;4976325;28;92428;-69
2021/11/23 00:50:31;;;;;;;7.97;4.63;;;8.70;86.10;;;;;;4957692;28;94099;-68
2021/11/23 00:52:58;;;;;;;9.68;4.05;;;8.70;86.30;;;;;;4975792;28;92838;-68
2021/11/23 00:55:26;;;;;;;7.55;3.53;;;8.70;86.40;;;;;;4975951;28;92471;-68
2021/11/23 00:57:52;;;;;;;10.20;4.88;;;8.70;86.50;;;;;;4975822;28;92455;-69
2021/11/23 01:00:21;;;;;;;8.98;3.80;;;8.70;86.90;;;;;;4958471;28;92937;-69
2021/11/23 01:02:48;;;;;;;11.40;3.60;;;8.70;86.50;;;;;;4975883;28;92948;-68
2021/11/23 01:05:15;;;;;;;12.60;4.78;;;8.70;86.40;;;;;;4975709;28;96381;-68
2021/11/23 01:07:42;;;;;;;8.30;4.00;;;8.70;86.30;;;;;;4957387;28;92519;-68
2021/11/23 01:10:10;;;;;;;6.53;4.05;;;8.70;86.40;;;;;;4974391;28;95383;-68
2021/11/23 01:12:37;;;;;;;8.02;3.90;;;8.70;86.30;;;;;;4957709;28;96370;-68
2021/11/23 01:15:07;;;;;;;11.73;4.70;;;8.80;86.30;;;;;;4958506;28;92352;-69
2021/11/23 01:17:34;;;;;;;11.80;4.78;;;8.80;86.40;;;;;;4957539;28;92486;-68
2021/11/23 01:20:01;;;;;;;9.18;4.65;;;8.80;86.40;;;;;;4975519;28;93042;-68
2021/11/23 01:22:28;;;;;;;8.57;4.40;;;8.80;86.30;;;;;;4975105;28;93016;-68
2021/11/23 01:24:55;;;;;;;10.30;4.40;;;8.80;86.50;;;;;;4975952;28;92511;-68
2021/11/23 01:27:22;;;;;;;11.45;4.50;;;8.80;86.50;;;;;;4976023;28;91806;-68
2021/11/23 01:29:49;;;;;;;6.53;3.50;;;8.90;86.40;;;;;;4975287;28;93103;-68
2021/11/23 01:32:16;;;;;;;8.52;4.32;;;8.90;86.60;;;;;;4957514;28;105559;-68
2021/11/23 01:34:43;;;;;;;6.70;3.60;;;8.90;86.50;;;;;;4956447;28;95012;-68
2021/11/23 01:37:10;;;;;;;5.47;3.53;;;8.90;86.50;;;;;;4975587;28;92459;-68
2021/11/23 01:39:37;;;;;;;7.03;3.25;;;8.90;86.50;;;;;;4975234;28;93054;-68
2021/11/23 01:42:04;;;;;;;6.78;3.42;;;9.00;86.60;;;;;;4975339;28;92711;-68
2021/11/23 01:44:31;;;;;;;5.80;3.15;;;9.00;86.50;;;;;;4975405;28;92850;-68
2021/11/23 01:46:58;;;;;;;6.53;3.50;;;9.00;86.60;;;;;;4975131;28;92497;-68
2021/11/23 01:49:26;;;;;;;8.68;3.95;;;9.00;86.70;;;;;;4975296;28;92541;-68
2021/11/23 01:51:53;;;;;;;6.05;3.53;;;9.00;86.70;;;;;;4957770;28;92892;-68
2021/11/23 01:54:20;;;;;;;6.65;3.33;;;9.00;86.80;;;;;;4975273;28;92477;-68
2021/11/23 01:56:48;;;;;;;8.27;3.20;;;9.00;86.90;;;;;;4974695;28;103167;-69
2021/11/23 01:59:15;;;;;;;3.42;2.70;;;9.10;86.90;;;;;;4956454;28;95505;-68
2021/11/23 02:01:45;;;;;;;4.65;3.03;;;9.10;86.90;;;;;;4974613;28;96182;-68
2021/11/23 02:04:12;;;;;;;5.30;3.13;;;9.10;86.90;;;;;;4975321;28;92347;-68
2021/11/23 02:06:39;;;;;;;4.97;3.00;;;9.20;86.80;;;;;;4975114;28;92449;-68
2021/11/23 02:09:06;;;;;;;7.47;2.92;;;9.20;86.90;;;;;;4975068;28;93054;-68
2021/11/23 02:11:34;;;;;;;7.20;2.80;;;9.20;87.00;;;;;;4974571;28;92654;-68
2021/11/23 02:14:01;;;;;;;5.72;2.75;;;9.20;87.00;;;;;;4975066;28;92653;-68
2021/11/23 02:16:28;;;;;;;6.22;2.67;;;9.20;87.00;;;;;;4974900;28;105548;-68
2021/11/23 02:18:55;;;;;;;3.42;3.00;;;9.20;87.10;;;;;;4958557;28;94518;-69
2021/11/23 02:21:22;;;;;;;5.72;3.08;;;9.30;87.70;;;;;;4978162;28;92854;-75
2021/11/23 02:23:49;;;;;;;7.88;3.33;;;9.30;87.20;;;;;;4959379;28;95309;-74
2021/11/23 02:26:16;;;;;;;3.83;2.80;;;9.30;87.10;;;;;;4960672;28;92454;-75
2021/11/23 02:28:44;;;;;;;4.50;2.90;;;9.30;87.00;;;;;;4978004;28;93037;-75
2021/11/23 02:31:11;;;;;;;3.75;2.88;;;9.40;87.10;;;;;;4977963;28;96936;-74
2021/11/23 02:33:39;;;;;;;6.13;3.05;;;9.40;87.20;;;;;;4977822;28;92472;-74
2021/11/23 02:36:08;;;;;;;3.60;3.30;;;9.40;87.10;;;;;;4978055;28;92628;-75
2021/11/23 02:38:37;;;;;;;5.20;3.30;;;9.40;87.20;;;;;;4960211;28;94738;-74
2021/11/23 02:41:06;;;;;;;4.47;3.50;;;9.40;87.10;;;;;;4978199;28;92739;-74
2021/11/23 02:43:33;;;;;;;5.63;3.38;;;9.50;87.10;;;;;;4977927;28;92540;-74
2021/11/23 02:46:01;;;;;;;7.03;3.80;;;9.50;87.90;;;;;;4977303;28;92549;-74
2021/11/23 02:48:28;;;;;;;5.03;3.38;;;9.50;87.20;;;;;;4976399;28;97335;-74
2021/11/23 02:51:38;;;;;;;6.32;3.63;;;9.50;87.30;;;;;;4977405;28;95160;-75
2021/11/23 02:53:49;;;;;;;6.53;3.90;;;9.50;87.50;;;;;;4969718;28;92478;-75
2021/11/23 02:56:18;;;;;;;7.57;3.85;;;9.40;87.80;;;;;;4977939;28;92433;-75
2021/11/23 02:58:47;;;;;;;6.88;4.00;;;9.50;88.00;;;;;;4959618;28;95335;-74
2021/11/23 03:01:18;;;;;;;5.10;4.07;;;9.50;87.80;;;;;;4977400;28;92848;-75
2021/11/23 03:03:46;;;;;;;6.53;3.78;;;9.50;87.60;;;;;;4977675;28;92846;-74
2021/11/23 03:06:17;;;;;;;9.27;4.18;;;9.60;87.50;;;;;;4977649;28;91670;-75
2021/11/23 03:08:45;;;;;;;6.78;3.75;;;9.60;87.40;;;;;;4995823;28;93052;-76
2021/11/23 03:11:13;;;;;;;6.38;3.85;;;9.60;87.30;;;;;;4995272;28;94881;-75
2021/11/23 03:13:40;;;;;;;6.18;3.50;;;9.60;87.30;;;;;;4995139;28;94974;-76
2021/11/23 03:16:07;;;;;;;4.65;3.65;;;9.60;87.20;;;;;;4997323;28;92347;-75
2021/11/23 03:18:34;;;;;;;4.38;3.40;;;9.60;87.20;;;;;;4997056;28;93057;-75
2021/11/23 03:21:02;;;;;;;4.55;3.40;;;9.70;87.20;;;;;;4997062;28;92907;-75
2021/11/23 03:23:29;;;;;;;6.45;3.72;;;9.70;87.20;;;;;;4997478;28;92495;-75
2021/11/23 03:25:56;;;;;;;6.75;4.28;;;9.70;87.00;;;;;;4995683;28;92498;-75
2021/11/23 03:28:23;;;;;;;7.85;4.57;;;9.70;87.00;;;;;;4997178;28;93826;-75
2021/11/23 03:30:50;;;;;;;7.95;4.13;;;9.70;87.10;;;;;;4995793;28;107745;-75
2021/11/23 03:33:19;;;;;;;8.82;4.53;;;9.70;87.20;;;;;;4997103;28;92422;-75
2021/11/23 03:35:47;;;;;;;7.68;4.72;;;9.60;87.10;;;;;;4996756;28;92845;-75
2021/11/23 03:38:15;;;;;;;9.60;5.00;;;9.60;87.10;;;;;;4995696;28;95283;-76
2021/11/23 03:40:42;;;;;;;9.32;4.90;;;9.60;87.10;;;;;;4995174;28;96445;-76
2021/11/23 03:43:11;;;;;;;7.65;4.75;;;9.60;87.20;;;;;;4995307;28;92511;-75
2021/11/23 03:45:38;;;;;;;9.52;4.72;;;9.60;87.20;;;;;;4995659;28;92415;-75
2021/11/23 03:48:06;;;;;;;5.90;4.03;;;9.60;87.20;;;;;;4995201;28;94481;-75
2021/11/23 03:50:33;;;;;;;8.52;4.35;;;9.60;87.30;;;;;;4996531;28;92683;-75
2021/11/23 03:53:01;;;;;;;9.02;4.63;;;9.60;87.40;;;;;;4995260;28;92415;-75
2021/11/23 03:55:32;;;;;;;6.78;4.18;;;9.60;87.60;;;;;;4995515;28;91692;-75
2021/11/23 03:58:01;;;;;;;11.52;4.63;;;9.60;87.60;;;;;;4996514;28;93076;-75
2021/11/23 04:00:29;;;;;;;7.70;4.78;;;9.60;87.50;;;;;;4996132;28;92698;-76
2021/11/23 04:02:56;;;;;;;7.97;3.92;;;9.60;87.40;;;;;;4993873;28;94806;-76
2021/11/23 04:05:24;;;;;;;8.77;3.97;;;9.60;87.60;;;;;;4996455;28;92402;-76
2021/11/23 04:07:51;;;;;;;9.80;3.65;;;9.60;87.70;;;;;;4996338;28;93169;-75
2021/11/23 04:10:18;;;;;;;7.70;4.20;;;9.60;87.70;;;;;;4994934;28;93956;-75
2021/11/23 04:12:46;;;;;;;6.47;4.25;;;9.60;87.70;;;;;;4996480;28;92330;-75
2021/11/23 04:15:15;;;;;;;9.80;4.13;;;9.60;87.70;;;;;;4996269;28;92889;-76
2021/11/23 04:17:42;;;;;;;8.27;4.38;;;9.70;87.70;;;;;;4994753;28;100819;-75
2021/11/23 04:20:09;;;;;;;7.97;4.03;;;9.70;87.70;;;;;;4994901;28;93975;-75
2021/11/23 04:22:38;;;;;;;6.03;4.20;;;9.70;87.70;;;;;;4994930;28;92465;-75
2021/11/23 04:25:08;;;;;;;8.10;3.85;;;9.60;87.50;;;;;;4996301;28;92814;-75
2021/11/23 04:27:35;;;;;;;12.70;4.78;;;9.60;87.60;;;;;;4994938;28;95485;-76
2021/11/23 04:30:04;;;;;;;10.60;4.75;;;9.60;87.80;;;;;;4994757;28;95191;-76
2021/11/23 04:32:31;;;;;;;8.10;3.85;;;9.60;87.60;;;;;;4994909;28;92421;-75
2021/11/23 04:34:58;;;;;;;8.50;3.83;;;9.50;87.70;;;;;;4995972;28;92526;-75
2021/11/23 04:37:25;;;;;;;15.48;4.45;;;9.50;87.80;;;;;;4996101;28;92967;-75
2021/11/23 04:39:54;;;;;;;9.43;4.13;;;9.50;87.70;;;;;;4995749;28;93913;-77
2021/11/23 04:42:21;;;;;;;9.77;4.20;;;9.50;87.70;;;;;;4994226;28;104367;-75
2021/11/23 04:44:48;;;;;;;11.60;4.05;;;9.40;87.50;;;;;;4996605;28;91584;-76
2021/11/23 04:47:15;;;;;;;10.15;4.15;;;9.40;87.50;;;;;;4995446;28;93140;-75
2021/11/23 04:49:42;;;;;;;11.45;4.00;;;9.30;87.50;;;;;;4994681;28;93029;-75
2021/11/23 04:52:09;;;;;;;9.88;3.97;;;9.30;87.50;;;;;;4994509;28;95267;-76
2021/11/23 04:54:36;;;;;;;10.85;4.43;;;9.20;87.60;;;;;;4995873;28;92424;-75
2021/11/23 04:57:04;;;;;;;8.25;3.55;;;9.20;87.80;;;;;;4994279;28;93054;-75
2021/11/23 04:59:31;;;;;;;7.93;3.53;;;9.20;87.90;;;;;;4995707;28;92801;-75
2021/11/23 05:01:58;;;;;;;9.38;3.58;;;9.20;88.10;;;;;;4996160;28;92383;-75
2021/11/23 05:04:25;;;;;;;11.02;3.42;;;9.30;87.90;;;;;;4977637;28;101287;-75
2021/11/23 05:06:52;;;;;;;8.48;3.47;;;9.30;88.20;;;;;;4995351;28;95690;-76
2021/11/23 05:09:19;;;;;;;9.85;3.30;;;9.30;88.10;;;;;;4994549;28;92690;-75
2021/11/23 05:11:48;;;;;;;7.47;3.42;;;9.40;88.10;;;;;;4995633;28;92475;-77
2021/11/23 05:14:15;;;;;;;10.25;2.80;;;9.40;88.20;;;;;;4995351;28;92421;-76
2021/11/23 05:16:42;;;;;;;8.52;3.08;;;9.40;88.10;;;;;;4993009;28;95328;-76
2021/11/23 05:19:09;;;;;;;5.20;2.50;;;9.50;88.10;;;;;;4993967;28;95473;-76
2021/11/23 05:21:36;;;;;;;6.45;2.70;;;9.50;88.00;;;;;;4995520;28;92501;-76
2021/11/23 05:24:04;;;;;;;7.85;3.30;;;9.50;87.90;;;;;;4995289;28;92471;-76
2021/11/23 05:26:31;;;;;;;9.73;2.47;;;9.60;88.00;;;;;;4995204;28;93156;-76
2021/11/23 05:28:57;;;;;;;9.63;2.30;;;9.60;87.90;;;;;;4993039;28;115085;-76
2021/11/23 05:31:24;;;;;;;7.85;2.17;;;9.60;87.80;;;;;;4995378;28;92446;-76
2021/11/23 05:33:51;;;;;;;8.35;1.90;;;9.60;87.70;;;;;;4994466;28;91719;-76
2021/11/23 05:36:18;;;;;;;6.10;2.08;;;9.60;87.60;;;;;;4995168;28;93135;-76
2021/11/23 05:38:45;;;;;;;4.32;2.28;;;9.60;87.50;;;;;;4995202;28;92776;-76
2021/11/23 05:41:12;;;;;;;8.43;1.92;;;9.70;87.40;;;;;;4993992;28;94840;-76
2021/11/23 05:43:39;;;;;;;7.95;2.20;;;9.70;87.40;;;;;;4994107;28;92928;-76
2021/11/23 05:46:06;;;;;;;6.45;2.10;;;9.70;87.20;;;;;;4993233;28;94136;-76
2021/11/23 05:48:33;;;;;;;6.85;2.70;;;9.70;87.10;;;;;;4995182;28;92730;-76
2021/11/23 05:51:04;;;;;;;6.60;2.38;;;9.60;87.10;;;;;;4993889;28;92867;-76
2021/11/23 05:53:33;;;;;;;4.60;1.80;;;9.60;87.30;;;;;;4995330;28;92541;-76
2021/11/23 05:56:00;;;;;;;5.72;2.22;;;9.60;87.30;;;;;;4998622;28;92970;-76
2021/11/23 05:58:27;;;;;;;6.53;2.08;;;9.60;87.30;;;;;;4997133;28;94032;-76
2021/11/23 06:00:54;;;;;;;9.80;2.63;;;9.60;87.40;;;;;;4998557;28;92322;-76
2021/11/23 06:03:21;;;;;;;9.77;2.30;;;9.60;87.50;;;;;;4997992;28;92855;-76
2021/11/23 06:05:49;;;;;;;9.18;2.65;;;9.60;87.40;;;;;;4979237;28;95473;-76
2021/11/23 06:08:16;;;;;;;8.18;2.30;;;9.60;87.30;;;;;;4979943;28;96144;-76
2021/11/23 06:10:43;;;;;;;6.50;2.85;;;9.50;87.30;;;;;;4998470;28;92388;-76
2021/11/23 06:13:11;;;;;;;8.77;2.85;;;9.50;87.50;;;;;;4980048;28;92567;-76
2021/11/23 06:15:41;;;;;;;11.43;3.90;;;9.40;87.80;;;;;;4998093;28;93094;-76
2021/11/23 06:18:10;;;;;;;8.30;2.85;;;9.40;88.00;;;;;;4998124;28;92902;-76
2021/11/23 06:20:37;;;;;;;8.43;3.42;;;9.40;88.00;;;;;;4998350;28;92467;-76
2021/11/23 06:23:04;;;;;;;10.52;3.85;;;9.40;88.10;;;;;;4998577;28;91737;-76
2021/11/23 06:25:31;;;;;;;11.00;3.10;;;9.40;88.00;;;;;;4997781;28;93004;-76
2021/11/23 06:27:58;;;;;;;10.13;3.13;;;9.40;87.90;;;;;;4997992;28;92819;-76
2021/11/23 06:30:25;;;;;;;9.60;3.30;;;9.40;87.80;;;;;;4996598;28;94725;-76
2021/11/23 06:32:52;;;;;;;7.68;3.33;;;9.40;88.50;;;;;;4998045;28;92430;-76
2021/11/23 06:35:23;;;;;;;7.75;2.40;;;9.30;87.80;;;;;;4996744;28;93083;-76
2021/11/23 06:37:50;;;;;;;10.63;2.63;;;9.30;87.80;;;;;;4979721;28;94137;-76
2021/11/23 06:40:17;;;;;;;7.20;2.15;;;9.20;87.80;;;;;;4997288;28;102135;-76
2021/11/23 06:42:44;;;;;;;8.20;2.25;;;9.20;88.00;;;;;;4997712;28;92518;-76
2021/11/23 06:45:13;;;;;;;11.70;2.35;;;9.20;88.20;;;;;;4979641;28;92910;-75
2021/11/23 06:47:40;;;;;;;9.18;2.17;;;9.20;88.10;;;;;;4998102;28;92948;-76
2021/11/23 06:50:09;;;;;;;8.70;2.20;;;9.20;88.10;;;;;;4997527;28;92468;-76
2021/11/23 06:52:36;;;;;;;8.07;2.00;;;9.20;88.00;;;;;;4997420;28;92449;-76
2021/11/23 06:55:03;;;;;;;7.88;2.13;;;9.20;88.10;;;;;;4996287;28;95521;-76
2021/11/23 06:57:30;;;;;;;9.10;2.28;;;9.20;88.20;;;;;;4997106;28;95230;-76
2021/11/23 06:59:57;;;;;;;9.13;2.30;;;9.20;88.30;;;;;;4997664;28;92460;-76
2021/11/23 07:02:25;;;;;;;7.45;2.08;;;9.30;88.20;;;;;;4995975;28;92499;-76
2021/11/23 07:04:52;;;;;;;9.82;2.35;;;9.30;88.10;;;;;;4996417;28;93059;-75
2021/11/23 07:07:19;;;;;;;8.25;2.53;;;9.30;88.10;;;;;;4979079;28;95740;-76
2021/11/23 07:09:46;;;;;;;7.45;2.75;;;9.30;88.20;;;;;;4997664;28;92523;-76
2021/11/23 07:12:13;;;;;;;11.50;2.80;;;9.30;88.10;;;;;;4996225;28;92159;-76
2021/11/23 07:14:40;;;;;;;7.53;2.70;;;9.40;88.10;;;;;;4996849;28;93172;-76
2021/11/23 07:17:07;;;;;;;7.38;2.28;;;9.30;87.90;;;;;;4996912;28;93395;-76
2021/11/23 07:19:34;;;;;;;11.05;2.63;;;9.30;87.80;;;;;;4977725;28;94826;-76
2021/11/23 07:22:01;;;;;;;7.88;2.50;;;9.40;87.80;;;;;;4997072;28;92442;-76
2021/11/23 07:24:29;;;;;;;9.05;2.80;;;9.40;87.90;;;;;;4995167;28;103589;-76
2021/11/23 07:26:56;;;;;;;7.47;2.50;;;9.40;87.70;;;;;;4996914;28;92703;-76
2021/11/23 07:29:23;;;;;;;9.25;2.83;;;9.40;87.50;;;;;;4997042;28;92576;-76
2021/11/23 07:31:50;;;;;;;11.80;3.67;;;9.50;87.50;;;;;;4995484;28;92501;-76
2021/11/23 07:34:17;;;;;;;6.78;2.67;;;9.50;87.40;;;;;;4996874;28;92501;-76
2021/11/23 07:36:44;;;;;;;6.40;2.88;;;9.50;87.40;;;;;;4995584;28;93914;-76
2021/11/23 07:39:11;;;;;;;5.90;2.58;;;9.60;87.30;;;;;;4979535;28;92920;-76
2021/11/23 07:41:38;;;;;;;9.77;3.20;;;9.70;87.30;;;;;;4979010;28;92587;-76
2021/11/23 07:44:07;;;;;;;7.03;2.65;;;9.70;87.10;;;;;;4995669;28;95531;-76
2021/11/23 07:46:34;;;;;;;4.68;2.05;;;9.80;86.90;;;;;;4995614;28;95255;-76
2021/11/23 07:49:02;;;;;;;7.53;2.22;;;9.90;86.50;;;;;;4962824;28;92594;-76
2021/11/23 07:51:29;;;;;;;6.28;2.20;;;9.90;86.50;;;;;;4996574;28;92429;-76
2021/11/23 07:53:56;;;;;;;6.75;1.98;;;10.00;86.40;;;;;;4978534;28;94131;-76
2021/11/23 07:56:23;;;;;;;6.45;2.15;;;10.10;86.10;;;;;;4996631;28;92635;-76
2021/11/23 07:58:50;;;;;;;11.40;2.38;;;10.10;86.00;;;;;;4995654;28;92494;-76
2021/11/23 08:01:17;;;;;;;7.60;2.30;;;10.10;85.70;;;;;;4979396;28;91754;-76
2021/11/23 08:03:44;;;;;;;7.70;3.03;;;10.00;85.40;;;;;;4996205;28;92955;-76
2021/11/23 08:06:11;;;;;;;6.25;2.80;;;10.10;85.70;;;;;;4978237;28;94136;-76
2021/11/23 08:08:39;;;;;;;7.18;2.42;;;10.00;85.60;;;;;;4960888;28;94883;-76
2021/11/23 08:11:07;;;;;;;7.75;2.03;;;10.10;85.70;;;;;;4996515;28;92548;-76
2021/11/23 08:13:34;;;;;;;8.40;2.10;;;10.10;85.90;;;;;;4995649;28;105109;-76
2021/11/23 08:16:03;;;;;;;3.47;1.45;;;10.10;85.60;;;;;;4995885;28;93596;-76
2021/11/23 08:18:31;;;;;;;5.07;2.03;;;10.10;85.60;;;;;;4996307;28;92476;-76
2021/11/23 08:20:59;;;;;;;8.73;2.15;;;10.10;85.50;;;;;;4996095;28;92509;-76
2021/11/23 08:23:27;;;;;;;5.57;1.90;;;10.10;85.40;;;;;;4996318;28;93139;-76
2021/11/23 08:25:54;;;;;;;6.03;1.80;;;10.10;85.30;;;;;;4996478;28;92854;-76
2021/11/23 08:28:27;;;;;;;7.53;1.90;;;10.10;85.20;;;;;;4996533;28;92862;-76
2021/11/23 08:30:56;;;;;;;6.45;2.50;;;10.10;85.30;;;;;;4994839;28;92487;-76
2021/11/23 08:33:23;;;;;;;5.65;1.73;;;10.00;85.30;;;;;;4960285;28;98090;-76
2021/11/23 08:35:50;;;;;;;9.70;2.38;;;10.00;85.50;;;;;;4995414;28;107999;-76
2021/11/23 08:38:17;;;;;;;6.30;1.90;;;10.00;85.60;;;;;;4996170;28;92362;-76
2021/11/23 08:40:45;;;;;;;3.40;1.60;;;10.00;85.60;;;;;;4977881;28;92495;-76
2021/11/23 08:43:12;;;;;;;7.47;1.75;;;10.00;85.90;;;;;;4995914;28;93329;-76
2021/11/23 08:45:41;;;;;;;5.03;1.30;;;10.00;85.90;;;;;;4995064;28;92711;-76
2021/11/23 08:48:08;;;;;;;5.10;1.45;;;10.10;85.70;;;;;;4996102;28;92627;-76
2021/11/23 08:50:35;;;;;;;3.97;1.00;;;10.20;85.50;;;;;;4996090;28;91671;-76
2021/11/23 08:53:07;;;;;;;6.30;1.17;;;10.40;85.30;;;;;;4977722;28;95994;-76
2021/11/23 08:55:36;;;;;;;2.72;1.23;;;10.50;84.70;;;;;;4994419;28;92860;-76
2021/11/23 08:58:05;;;;;;;3.28;1.17;;;10.60;84.20;;;;;;4994496;28;94831;-76
2021/11/23 09:00:33;;;;;;;2.75;1.23;;;10.70;83.90;;;;;;4977533;28;92666;-76
2021/11/23 09:03:01;;;;;;;3.88;1.10;;;10.70;83.90;;;;;;4995607;28;92909;-76
2021/11/23 09:05:35;;;;;;;6.00;1.10;;;10.90;83.70;;;;;;4995814;28;92909;-76
2021/11/23 09:08:04;;;;;;;4.28;1.17;;;10.90;83.40;;;;;;4994555;28;92557;-76
2021/11/23 09:10:36;;;;;;;6.93;1.92;;;11.00;83.00;;;;;;4995670;28;92437;-76
2021/11/23 09:13:04;;;;;;;8.23;1.70;;;11.00;82.90;;;;;;4995683;28;93122;-76
2021/11/23 09:15:31;;;;;;;3.45;1.00;;;11.00;82.70;;;;;;4995972;28;92880;-76
2021/11/23 09:18:00;;;;;;;5.75;1.33;;;10.90;82.90;;;;;;4995314;28;92363;-76
2021/11/23 09:20:35;;;;;;;4.80;1.15;;;10.80;83.00;;;;;;4995544;28;92914;-76
2021/11/23 09:23:08;;;;;;;3.72;1.40;;;10.80;83.00;;;;;;4994338;28;95503;-76
2021/11/23 09:25:37;;;;;;;8.37;1.80;;;10.80;83.10;;;;;;4994058;28;95080;-76
2021/11/23 09:28:04;;;;;;;9.23;1.90;;;10.80;83.90;;;;;;4995765;28;92383;-76
2021/11/23 09:30:31;;;;;;;5.15;1.65;;;10.80;83.40;;;;;;4981385;28;92471;-76
2021/11/23 09:33:00;;;;;;;6.68;1.65;;;10.90;83.50;;;;;;4998440;28;93068;-76
2021/11/23 09:35:27;;;;;;;11.45;2.13;;;10.90;83.30;;;;;;4998814;28;93097;-76
2021/11/23 09:37:55;;;;;;;8.52;2.33;;;10.90;83.20;;;;;;4998718;28;92468;-76
2021/11/23 09:40:23;;;;;;;3.70;1.58;;;10.90;83.10;;;;;;4999319;28;91715;-76
2021/11/23 09:42:51;;;;;;;6.57;1.90;;;10.90;83.20;;;;;;4998457;28;93116;-76
2021/11/23 09:45:18;;;;;;;5.18;1.80;;;10.90;83.00;;;;;;4998666;28;92724;-76
2021/11/23 09:47:46;;;;;;;6.22;2.20;;;10.90;83.00;;;;;;4979316;28;95201;-76
2021/11/23 09:50:14;;;;;;;8.18;1.70;;;10.90;83.00;;;;;;4998644;28;92443;-76
2021/11/23 09:52:43;;;;;;;9.77;2.63;;;11.00;82.90;;;;;;4996688;28;93044;-76
2021/11/23 09:55:11;;;;;;;6.55;2.10;;;11.00;82.70;;;;;;4998317;28;92768;-76
2021/11/23 09:57:38;;;;;;;8.25;2.33;;;11.00;82.90;;;;;;4997981;28;104520;-76
2021/11/23 10:00:36;;;;;;;8.73;2.05;;;11.10;82.40;;;;;;4998379;28;92417;-76
2021/11/23 10:03:12;;;;;;;7.47;1.92;;;11.20;82.30;;;;;;4980050;28;94175;-76
2021/11/23 10:05:41;;;;;;;9.00;2.33;;;11.20;82.30;;;;;;4998946;28;92846;-76
2021/11/23 10:08:13;;;;;;;6.32;1.50;;;11.20;82.10;;;;;;4998620;28;92377;-76
2021/11/23 10:10:43;;;;;;;6.10;1.65;;;11.30;81.80;;;;;;4998563;28;92352;-76
2021/11/23 10:13:12;;;;;;;4.63;1.42;;;11.20;81.50;;;;;;4996988;28;95527;-76
2021/11/23 10:15:45;;;;;;;5.85;1.45;;;11.30;81.60;;;;;;4996568;28;97951;-76
2021/11/23 10:18:22;;;;;;;8.13;1.40;;;11.30;81.50;;;;;;4998653;28;92500;-76
2021/11/23 10:20:56;;;;;;;4.35;1.52;;;11.30;81.00;;;;;;4998285;28;92450;-76
2021/11/23 10:23:30;;;;;;;9.15;2.25;;;11.30;81.20;;;;;;4996972;28;93266;-76
2021/11/23 10:26:02;;;;;;;8.07;1.98;;;11.40;80.90;;;;;;4996889;28;92947;-76
2021/11/23 10:28:31;;;;;;;4.80;1.63;;;11.40;80.90;;;;;;4980289;28;92540;-76
2021/11/23 10:30:59;;;;;;;4.30;1.48;;;11.40;80.90;;;;;;4980258;28;91705;-76
2021/11/23 10:33:27;;;;;;;8.13;1.73;;;11.50;81.00;;;;;;4997880;28;92918;-76
2021/11/23 10:35:58;;;;;;;4.40;1.55;;;11.50;80.90;;;;;;4997497;28;92771;-76
2021/11/23 10:38:26;;;;;;;8.20;1.90;;;11.60;80.70;;;;;;4996978;28;94878;-69
2021/11/23 10:40:54;;;;;;;12.25;1.83;;;11.60;80.30;;;;;;4997390;28;92452;-69
2021/11/23 10:43:23;;;;;;;6.43;1.50;;;11.60;80.40;;;;;;4997768;28;92986;-70
2021/11/23 10:45:53;;;;;;;6.10;1.60;;;11.70;80.20;;;;;;4996818;28;94661;-70
2021/11/23 10:48:25;;;;;;;5.32;1.75;;;11.80;79.80;;;;;;4998117;28;92543;-70
2021/11/23 10:51:08;;;;;;;2.75;1.45;;;11.90;79.70;;;;;;4979424;28;92496;-70
2021/11/23 10:53:37;;;;;;;9.40;2.15;;;12.10;79.40;;;;;;4997754;28;93144;-69
2021/11/23 10:56:06;;;;;;;5.70;1.63;;;12.10;79.50;;;;;;4996513;28;97210;-69
2021/11/23 10:58:34;;;;;;;5.40;1.90;;;12.10;79.60;;;;;;4996228;28;92457;-70
2021/11/23 11:01:04;;;;;;;6.65;1.80;;;12.00;79.70;;;;;;4997458;28;92437;-70
2021/11/23 11:03:33;;;;;;;5.47;1.30;;;12.00;80.00;;;;;;4996356;28;95616;-69
2021/11/23 11:06:02;;;;;;;7.00;1.42;;;12.00;79.50;;;;;;4996942;28;95864;-70
2021/11/23 11:08:44;;;;;;;7.88;1.25;;;12.00;79.30;;;;;;4997630;28;92342;-70
2021/11/23 11:11:17;;;;;;;8.48;1.67;;;12.00;78.20;;;;;;4997518;28;93256;-70
2021/11/23 11:13:48;;;;;;;6.93;1.75;;;12.10;78.60;;;;;;4995812;28;94231;-70
2021/11/23 11:16:17;;;;;;;4.38;1.27;;;12.10;79.10;;;;;;4995310;28;94174;-69
2021/11/23 11:19:07;;;;;;;5.70;1.40;;;12.10;78.40;;;;;;4997476;28;92873;-70
2021/11/23 11:21:47;;;;;;;5.75;1.33;;;12.20;78.10;;;;;;4997724;28;91640;-70
2021/11/23 11:24:32;;;;;;;6.13;1.80;;;12.20;78.10;;;;;;4997050;28;93124;-69
2021/11/23 11:27:11;;;;;;;4.10;1.40;;;12.30;77.90;;;;;;4997075;28;92892;-69
2021/11/23 11:29:43;;;;;;;6.45;1.10;;;12.20;77.70;;;;;;4996139;28;94924;-69
2021/11/23 11:32:33;;;;;;;8.35;1.63;;;12.20;77.70;;;;;;4995494;28;92359;-69
2021/11/23 11:35:26;;;;;;;6.25;1.30;;;12.30;77.40;;;;;;4996427;28;93096;-70
2021/11/23 11:37:58;;;;;;;6.20;1.40;;;12.20;77.40;;;;;;4996956;28;92780;-70
2021/11/23 11:40:34;;;;;;;7.07;1.40;;;12.30;78.20;;;;;;4997062;28;92368;-70
2021/11/23 11:43:07;;;;;;;8.23;1.75;;;12.50;77.00;;;;;;4996968;28;92827;-70
2021/11/23 11:45:49;;;;;;;7.05;1.38;;;12.60;76.70;;;;;;4996431;28;92998;-70
2021/11/23 11:48:43;;;;;;;6.82;1.30;;;12.60;75.40;;;;;;4996756;28;95835;-70
2021/11/23 11:51:41;;;;;;;4.38;1.25;;;12.60;75.30;;;;;;4978136;28;92521;-70
2021/11/23 11:54:20;;;;;;;12.05;1.83;;;12.60;74.80;;;;;;4996664;28;92548;-69
2021/11/23 11:56:50;;;;;;;3.72;0.93;;;12.60;74.60;;;;;;4995576;28;95624;-70
2021/11/23 11:59:16;;;;;;;2.58;0.90;;;12.50;73.70;;;;;;4996152;28;95233;-70
2021/11/23 12:02:18;;;;;;;1.27;0.60;;;12.60;73.90;;;;;;4996854;28;92457;-69
2021/11/23 12:05:00;;;;;;;2.15;0.80;;;12.60;73.90;;;;;;4979019;28;92606;-69
2021/11/23 12:07:48;;;;;;;2.05;0.50;;;12.70;73.90;;;;;;4994960;28;94348;-70
2021/11/23 12:10:18;;;;;;;2.88;0.82;;;12.70;73.50;;;;;;4996573;28;93139;-70
2021/11/23 12:13:14;;;;;;;4.40;1.02;;;12.60;73.30;;;;;;4996442;28;92407;-70
2021/11/23 12:16:06;;;;;;;5.00;1.35;;;12.70;72.90;;;;;;4978511;28;91793;-70
2021/11/23 12:18:37;;;;;;;5.95;1.63;;;12.50;73.40;;;;;;4978448;28;93157;-70
2021/11/23 12:21:11;;;;;;;2.47;1.00;;;12.40;74.20;;;;;;4995954;28;92863;-70
2021/11/23 12:23:54;;;;;;;10.40;1.80;;;12.30;74.60;;;;;;4995247;28;94789;-70
2021/11/23 12:26:26;;;;;;;4.40;1.25;;;12.20;74.90;;;;;;4994680;28;92529;-70
2021/11/23 12:29:13;;;;;;;5.18;1.13;;;12.10;75.90;;;;;;4978250;28;93125;-70
2021/11/23 12:31:45;;;;;;;4.75;1.17;;;12.00;76.70;;;;;;4996333;28;92827;-70
2021/11/23 12:34:12;;;;;;;4.93;1.73;;;12.00;76.50;;;;;;4978829;28;92888;-70
2021/11/23 12:36:46;;;;;;;7.53;1.58;;;12.00;76.70;;;;;;4995799;28;101356;-69
2021/11/23 12:39:17;;;;;;;4.65;1.45;;;12.10;76.80;;;;;;4995907;28;93262;-69
2021/11/23 12:41:45;;;;;;;5.75;1.60;;;12.10;76.80;;;;;;4996050;28;94767;-70
2021/11/23 12:44:20;;;;;;;5.38;1.52;;;12.20;76.70;;;;;;4995795;28;92447;-70
2021/11/23 12:47:08;;;;;;;2.20;1.10;;;12.30;77.20;;;;;;4977643;28;92461;-70
2021/11/23 12:49:36;;;;;;;4.50;1.05;;;12.30;76.40;;;;;;4994810;28;95519;-70
2021/11/23 12:52:16;;;;;;;3.22;1.23;;;12.30;75.80;;;;;;4995466;28;105162;-70
2021/11/23 12:54:47;;;;;;;3.60;1.10;;;12.40;75.70;;;;;;4979872;28;93018;-69
2021/11/23 12:57:20;;;;;;;3.38;1.10;;;12.40;75.70;;;;;;4996062;28;92913;-70
2021/11/23 12:59:51;;;;;;;7.97;1.83;;;12.40;75.70;;;;;;4995835;28;93020;-69
2021/11/23 13:02:35;;;;;;;8.93;1.67;;;12.40;75.60;;;;;;4995154;28;92791;-69